Time;durP1;ratioP1;P1;durP2;ratioP2;P2;SDS_P1;SDS_P2;PMS_P1;PMS_P2;Temp;Humidity;BMP_temperature;BMP_pressure;BME280_temperature;BME280_humidity;BME280_pressure;Samples;Min_cycle;Max_cycle;Signal;HPM_P1;HPM_P2
2022/01/24 00:01:37;;;;;;;33.57;16.23;;;-0.80;99.90;;;;;;5101794;27;20223;-73
2022/01/24 00:04:26;;;;;;;35.13;16.07;;;-0.80;99.90;;;;;;5099776;27;20296;-72
2022/01/24 00:07:19;;;;;;;30.00;15.53;;;-0.70;99.90;;;;;;5088356;28;20221;-73
2022/01/24 00:10:12;;;;;;;35.27;16.93;;;-0.70;99.90;;;;;;5105413;27;20231;-73
2022/01/24 00:13:27;;;;;;;34.00;16.37;;;-0.70;99.90;;;;;;5110733;27;20222;-73
2022/01/24 00:16:26;;;;;;;41.90;16.80;;;-0.70;99.90;;;;;;5121607;27;20219;-74
2022/01/24 00:28:38;;;;;;;35.87;16.83;;;-0.50;99.90;;;;;;5100387;28;20658;-73
2022/01/24 00:31:32;;;;;;;33.37;16.30;;;-0.60;99.90;;;;;;5107499;27;20803;-74
2022/01/24 00:34:23;;;;;;;39.70;18.07;;;-0.50;99.90;;;;;;5119372;27;20749;-74
2022/01/24 00:37:12;;;;;;;35.63;17.47;;;-0.50;99.90;;;;;;5120770;27;20325;-73
2022/01/24 00:40:00;;;;;;;36.67;16.73;;;-0.50;99.90;;;;;;5108943;27;20274;-72
2022/01/24 00:42:53;;;;;;;33.10;15.60;;;-0.40;99.90;;;;;;5102101;27;20232;-73
2022/01/24 00:45:54;;;;;;;30.63;15.57;;;-0.40;99.90;;;;;;5099217;27;20228;-71
2022/01/24 00:49:12;;;;;;;32.87;15.60;;;-0.50;99.90;;;;;;5100480;28;20208;-72
2022/01/24 00:55:08;;;;;;;34.20;15.37;;;-0.30;99.90;;;;;;5116138;27;20323;-71
2022/01/24 00:57:56;;;;;;;36.87;16.80;;;-0.40;99.90;;;;;;5100164;28;20208;-71
2022/01/24 01:00:45;;;;;;;33.90;16.60;;;-0.40;99.90;;;;;;5095476;27;20677;-72
2022/01/24 01:03:34;;;;;;;35.47;15.60;;;-0.30;99.90;;;;;;5097613;27;20754;-71
2022/01/24 01:06:24;;;;;;;36.10;16.93;;;-0.30;99.90;;;;;;5096806;28;20311;-71
2022/01/24 01:18:31;;;;;;;38.37;18.47;;;-0.40;99.90;;;;;;5096237;28;20683;-73
2022/01/24 01:21:20;;;;;;;36.63;17.73;;;-0.30;99.90;;;;;;5082541;28;20319;-71
2022/01/24 01:24:11;;;;;;;36.50;17.83;;;-0.40;99.90;;;;;;5103880;27;20216;-73
2022/01/24 01:27:04;;;;;;;39.87;18.77;;;-0.30;99.90;;;;;;5099082;28;20831;-71
2022/01/24 01:29:59;;;;;;;37.13;18.03;;;-0.30;99.90;;;;;;5097419;27;20223;-73
2022/01/24 01:32:58;;;;;;;42.10;18.90;;;-0.30;99.90;;;;;;5099857;27;20764;-72
2022/01/24 01:36:01;;;;;;;40.27;16.90;;;-0.30;99.90;;;;;;5103164;27;20249;-71
2022/01/24 01:39:18;;;;;;;56.47;24.50;;;-0.30;99.90;;;;;;5106942;27;20661;-73
2022/01/24 01:54:55;;;;;;;68.10;29.37;;;-0.40;99.90;;;;;;5121554;27;20217;-74
2022/01/24 01:57:45;;;;;;;64.63;28.10;;;-0.40;99.90;;;;;;5093250;28;20229;-72
2022/01/24 02:00:34;;;;;;;55.97;24.40;;;-0.40;99.90;;;;;;5093626;27;20238;-72
2022/01/24 02:03:28;;;;;;;49.87;23.27;;;-0.40;99.90;;;;;;5095541;27;20956;-71
2022/01/24 02:06:18;;;;;;;43.37;20.07;;;-0.50;99.90;;;;;;5104694;27;20749;-70
2022/01/24 02:09:13;;;;;;;41.27;19.27;;;-0.40;99.90;;;;;;5107532;27;20302;-71
2022/01/24 02:12:01;;;;;;;43.40;19.33;;;-0.40;99.90;;;;;;5119128;27;20320;-72
2022/01/24 02:14:56;;;;;;;36.20;17.17;;;-0.50;99.90;;;;;;5118973;27;20251;-72
2022/01/24 02:17:58;;;;;;;39.43;18.03;;;-0.40;99.90;;;;;;5104233;27;20238;-74
2022/01/24 02:21:08;;;;;;;37.00;17.90;;;-0.30;99.90;;;;;;5116111;27;20223;-73
2022/01/24 02:24:01;;;;;;;41.87;18.07;;;-0.40;99.90;;;;;;5101621;27;20223;-73
2022/01/24 02:26:54;;;;;;;34.43;16.23;;;-0.30;99.90;;;;;;5094218;27;20219;-73
2022/01/24 02:29:53;;;;;;;35.37;16.30;;;-0.30;99.90;;;;;;5097865;28;20244;-74
2022/01/24 02:32:42;;;;;;;36.63;17.83;;;-0.30;99.90;;;;;;5098949;27;20236;-73
2022/01/24 02:35:31;;;;;;;39.53;18.13;;;-0.30;99.90;;;;;;5107307;27;20224;-73
2022/01/24 02:38:33;;;;;;;38.07;17.73;;;-0.30;99.90;;;;;;5087569;28;20231;-74
2022/01/24 02:53:51;;;;;;;38.27;16.30;;;-0.20;99.90;;;;;;5112931;27;20930;-74
2022/01/24 02:56:41;;;;;;;35.23;17.10;;;-0.30;99.90;;;;;;5099278;27;20235;-74
2022/01/24 02:59:30;;;;;;;39.27;17.53;;;-0.30;99.90;;;;;;5113806;27;20230;-74
2022/01/24 03:02:19;;;;;;;37.43;17.73;;;-0.20;99.90;;;;;;5101627;28;20208;-73
2022/01/24 03:05:08;;;;;;;35.33;17.10;;;-0.20;99.90;;;;;;5114387;27;20960;-72
2022/01/24 03:07:57;;;;;;;36.47;16.00;;;-0.30;99.90;;;;;;5116343;27;20215;-72
2022/01/24 03:10:47;;;;;;;38.90;17.13;;;-0.30;99.90;;;;;;5114736;27;20219;-72
2022/01/24 03:13:37;;;;;;;39.33;17.53;;;-0.30;99.90;;;;;;5115109;27;20253;-72
2022/01/24 03:16:25;;;;;;;36.87;17.23;;;-0.30;99.90;;;;;;5115333;27;20220;-73
2022/01/24 03:19:14;;;;;;;39.50;18.27;;;-0.30;99.90;;;;;;5122276;27;20219;-74
2022/01/24 03:22:04;;;;;;;37.73;17.53;;;-0.20;99.90;;;;;;5114916;28;20891;-73
2022/01/24 03:24:52;;;;;;;36.90;17.70;;;-0.20;99.90;;;;;;5101186;27;20874;-73
2022/01/24 03:27:41;;;;;;;41.30;18.87;;;-0.30;99.90;;;;;;5118559;27;20247;-73
2022/01/24 03:30:31;;;;;;;37.63;18.20;;;-0.20;99.90;;;;;;5120161;27;20299;-73
2022/01/24 03:33:20;;;;;;;36.43;18.27;;;-0.20;99.90;;;;;;5089192;28;20320;-73
2022/01/24 03:36:09;;;;;;;33.47;15.97;;;-0.20;99.90;;;;;;5100455;28;20716;-74
2022/01/24 03:38:57;;;;;;;34.87;16.70;;;-0.20;99.90;;;;;;5100649;28;20219;-72
2022/01/24 03:41:46;;;;;;;34.97;17.00;;;-0.20;99.90;;;;;;5103505;27;20593;-73
2022/01/24 03:44:35;;;;;;;41.37;18.10;;;-0.20;99.90;;;;;;5094034;27;20384;-73
2022/01/24 03:47:44;;;;;;;43.40;19.20;;;-0.20;99.90;;;;;;5097494;28;20223;-74
2022/01/24 03:50:36;;;;;;;43.60;18.43;;;-0.30;99.90;;;;;;5095496;28;20220;-71
2022/01/24 03:53:25;;;;;;;41.30;18.07;;;-0.30;99.90;;;;;;5100927;28;20227;-73
2022/01/24 03:56:14;;;;;;;40.00;18.40;;;-0.30;99.90;;;;;;5107539;27;20223;-72
2022/01/24 03:59:02;;;;;;;44.63;20.37;;;-0.30;99.90;;;;;;5092961;28;20219;-72
2022/01/24 04:01:51;;;;;;;44.03;20.33;;;-0.30;99.90;;;;;;5103608;27;20230;-73
2022/01/24 04:04:42;;;;;;;47.53;20.07;;;-0.30;99.90;;;;;;5097802;28;20235;-73
2022/01/24 04:07:31;;;;;;;42.50;19.07;;;-0.30;99.90;;;;;;5095109;28;20208;-72
2022/01/24 04:10:21;;;;;;;41.63;20.33;;;-0.40;99.90;;;;;;5099922;27;20236;-72
2022/01/24 04:13:23;;;;;;;42.17;18.97;;;-0.30;99.90;;;;;;5095693;27;20232;-72
2022/01/24 04:16:27;;;;;;;45.73;20.00;;;-0.40;99.90;;;;;;5098469;28;20783;-73
2022/01/24 04:21:17;;;;;;;47.47;22.20;;;-0.40;99.90;;;;;;5094239;28;20230;-73
2022/01/24 04:22:31;;;;;;;49.37;21.77;;;-0.30;99.90;;;;;;5118960;27;20224;-72
2022/01/24 04:25:23;;;;;;;50.53;22.47;;;-0.30;99.90;;;;;;5111177;27;20224;-73
2022/01/24 04:28:14;;;;;;;48.50;22.40;;;-0.20;99.90;;;;;;5097554;27;20220;-73
2022/01/24 04:31:03;;;;;;;50.00;21.43;;;-0.20;99.90;;;;;;5095739;27;20218;-73
2022/01/24 04:33:52;;;;;;;52.90;24.03;;;-0.20;99.90;;;;;;5092099;27;20223;-73
2022/01/24 04:36:41;;;;;;;53.03;24.07;;;-0.20;99.90;;;;;;5101384;27;20220;-72
2022/01/24 04:39:31;;;;;;;50.53;23.67;;;-0.20;99.90;;;;;;5120384;27;20643;-72
2022/01/24 04:42:28;;;;;;;52.20;23.53;;;-0.20;99.90;;;;;;5106471;27;20210;-73
2022/01/24 04:45:39;;;;;;;53.30;23.53;;;-0.20;99.90;;;;;;5105258;27;20222;-73
2022/01/24 04:51:50;;;;;;;50.87;23.73;;;-0.20;99.90;;;;;;5100964;28;20221;-75
2022/01/24 04:54:42;;;;;;;60.93;24.20;;;-0.20;99.90;;;;;;5096808;27;20240;-72
2022/01/24 04:57:31;;;;;;;50.67;23.10;;;-0.20;99.90;;;;;;5095509;28;20261;-71
2022/01/24 05:00:19;;;;;;;53.97;23.27;;;-0.30;99.90;;;;;;5096835;28;20212;-73
2022/01/24 05:03:08;;;;;;;50.43;22.23;;;-0.30;99.90;;;;;;5093095;28;20972;-72
2022/01/24 05:05:57;;;;;;;48.93;23.50;;;-0.30;99.90;;;;;;5101863;28;20232;-71
2022/01/24 05:08:46;;;;;;;58.77;24.17;;;-0.30;99.90;;;;;;5096636;28;20224;-72
2022/01/24 05:11:43;;;;;;;53.07;23.93;;;-0.30;99.90;;;;;;5096077;28;20227;-72
2022/01/24 05:23:50;;;;;;;58.97;25.07;;;-0.30;99.90;;;;;;5094515;27;20226;-72
2022/01/24 05:26:40;;;;;;;52.00;23.17;;;-0.30;99.90;;;;;;5100405;28;20799;-72
2022/01/24 05:29:29;;;;;;;53.27;24.20;;;-0.30;99.90;;;;;;5099986;27;20219;-72
2022/01/24 05:32:18;;;;;;;54.70;24.43;;;-0.30;99.90;;;;;;5099983;28;20216;-72
2022/01/24 05:35:07;;;;;;;54.80;25.80;;;-0.30;99.90;;;;;;5099557;28;20227;-72
2022/01/24 05:37:55;;;;;;;58.97;25.90;;;-0.30;99.90;;;;;;5087656;28;20342;-72
2022/01/24 05:40:45;;;;;;;59.10;25.63;;;-0.30;99.90;;;;;;5094989;28;21409;-72
2022/01/24 05:43:36;;;;;;;61.80;26.47;;;-0.40;99.90;;;;;;5099328;28;20217;-71
2022/01/24 05:46:24;;;;;;;62.47;27.40;;;-0.50;99.90;;;;;;5098868;27;20650;-71
2022/01/24 05:49:13;;;;;;;53.77;22.33;;;-0.40;99.90;;;;;;5101624;27;20308;-71
2022/01/24 05:52:09;;;;;;;58.50;22.93;;;-0.40;99.90;;;;;;5099053;27;20224;-71
2022/01/24 05:54:57;;;;;;;45.43;20.10;;;-0.30;99.90;;;;;;5099655;27;20211;-71
2022/01/24 05:57:46;;;;;;;54.13;22.40;;;-0.20;99.90;;;;;;5100317;28;20268;-71
2022/01/24 06:00:40;;;;;;;63.33;25.07;;;-0.20;99.90;;;;;;5097013;28;20220;-70
2022/01/24 06:03:29;;;;;;;47.07;21.43;;;-0.20;99.90;;;;;;5095079;27;20250;-71
2022/01/24 06:06:18;;;;;;;42.60;18.60;;;-0.30;99.90;;;;;;5122148;27;20220;-70
2022/01/24 06:09:06;;;;;;;47.40;20.27;;;-0.30;99.90;;;;;;5098839;28;20234;-70
2022/01/24 06:11:55;;;;;;;45.17;22.13;;;-0.20;99.90;;;;;;5099958;27;20226;-71
2022/01/24 06:14:43;;;;;;;55.30;22.83;;;-0.20;99.90;;;;;;5093073;28;20224;-70
2022/01/24 06:17:34;;;;;;;52.37;22.83;;;-0.20;99.90;;;;;;5096501;28;20223;-71
2022/01/24 06:20:24;;;;;;;48.67;20.83;;;-0.40;99.90;;;;;;5107615;27;20231;-72
2022/01/24 06:23:14;;;;;;;47.03;17.70;;;-0.30;99.90;;;;;;5084026;27;20307;-71
2022/01/24 06:26:02;;;;;;;48.87;21.50;;;-0.30;99.90;;;;;;5103470;27;20810;-71
2022/01/24 06:28:51;;;;;;;49.17;22.53;;;-0.20;99.90;;;;;;5089469;28;20223;-71
2022/01/24 06:31:40;;;;;;;54.77;21.50;;;-0.20;99.90;;;;;;5083008;28;20266;-71
2022/01/24 06:34:30;;;;;;;46.43;21.00;;;-0.20;99.90;;;;;;5095344;28;20996;-71
2022/01/24 06:37:19;;;;;;;50.10;19.43;;;-0.20;99.90;;;;;;5094222;28;20216;-73
2022/01/24 06:40:10;;;;;;;50.70;21.80;;;-0.30;99.90;;;;;;5096241;28;20235;-71
2022/01/24 06:42:58;;;;;;;50.53;20.70;;;-0.20;99.90;;;;;;5111425;27;20265;-71
2022/01/24 06:45:47;;;;;;;49.67;21.70;;;-0.30;99.90;;;;;;5102465;27;20223;-71
2022/01/24 06:48:37;;;;;;;48.97;19.10;;;-0.20;99.90;;;;;;5104569;28;20223;-72
2022/01/24 06:51:27;;;;;;;45.20;19.53;;;-0.20;99.90;;;;;;5099256;27;20657;-73
2022/01/24 06:54:16;;;;;;;50.53;20.00;;;-0.20;99.90;;;;;;5113394;27;20799;-72
2022/01/24 06:57:05;;;;;;;50.17;19.90;;;-0.30;99.90;;;;;;5090237;28;20217;-73
2022/01/24 06:59:57;;;;;;;48.27;21.20;;;-0.30;99.90;;;;;;5094382;28;20226;-73
2022/01/24 07:02:46;;;;;;;52.40;21.33;;;-0.20;99.90;;;;;;5099789;28;20234;-74
2022/01/24 07:05:35;;;;;;;49.43;21.53;;;-0.10;99.90;;;;;;5096410;27;20228;-73
2022/01/24 07:08:25;;;;;;;54.57;22.47;;;-0.20;99.90;;;;;;5116099;27;20223;-74
2022/01/24 07:11:14;;;;;;;50.63;22.77;;;-0.20;99.90;;;;;;5116421;27;20224;-75
2022/01/24 07:14:06;;;;;;;51.47;22.67;;;-0.30;99.90;;;;;;5102486;27;20231;-76
2022/01/24 07:17:13;;;;;;;45.23;21.13;;;-0.10;99.90;;;;;;5110339;27;20337;-77
2022/01/24 07:20:02;;;;;;;49.50;21.77;;;-0.10;99.90;;;;;;5107803;27;20664;-80
2022/01/24 07:22:50;;;;;;;51.57;20.63;;;0.00;99.90;;;;;;5130741;27;20252;-79
2022/01/24 07:25:40;;;;;;;54.03;22.80;;;-0.10;99.90;;;;;;5107689;27;20722;-74
2022/01/24 07:28:29;;;;;;;56.07;23.67;;;-0.10;99.90;;;;;;5100062;28;20220;-74
2022/01/24 07:31:18;;;;;;;47.97;22.27;;;-0.20;99.90;;;;;;5111302;27;20707;-73
2022/01/24 07:34:06;;;;;;;62.03;22.97;;;0.00;99.90;;;;;;5102710;28;20277;-74
2022/01/24 07:36:55;;;;;;;51.77;22.77;;;-0.10;99.90;;;;;;5100565;28;20216;-74
2022/01/24 07:39:46;;;;;;;56.30;22.97;;;-0.10;99.90;;;;;;5106972;27;20312;-76
2022/01/24 07:42:53;;;;;;;47.47;22.67;;;0.00;99.90;;;;;;5106814;27;20736;-74
2022/01/24 07:45:43;;;;;;;51.27;23.30;;;0.00;99.90;;;;;;5128350;27;20230;-74
2022/01/24 07:48:32;;;;;;;49.97;22.80;;;0.00;99.90;;;;;;5122705;27;20344;-74
2022/01/24 07:51:21;;;;;;;53.17;22.87;;;0.00;99.90;;;;;;5123764;27;20751;-72
2022/01/24 07:54:09;;;;;;;63.93;23.37;;;0.00;99.90;;;;;;5102897;27;20226;-74
2022/01/24 07:56:59;;;;;;;53.13;21.80;;;0.10;99.90;;;;;;5117100;27;20222;-76
2022/01/24 07:59:49;;;;;;;48.77;22.70;;;0.00;99.90;;;;;;5106644;27;20235;-75
2022/01/24 08:02:38;;;;;;;54.60;23.13;;;0.10;99.90;;;;;;5118683;27;20236;-74
2022/01/24 08:05:28;;;;;;;49.93;23.63;;;0.10;99.90;;;;;;5106834;27;20299;-74
2022/01/24 08:08:17;;;;;;;56.47;21.83;;;0.20;99.90;;;;;;5119073;27;20214;-74
2022/01/24 08:11:06;;;;;;;49.20;21.97;;;0.20;99.90;;;;;;5098522;27;20219;-75
2022/01/24 08:13:55;;;;;;;53.17;24.37;;;0.20;99.90;;;;;;5105291;27;20251;-75
2022/01/24 08:16:46;;;;;;;48.57;20.27;;;0.20;99.90;;;;;;5103009;27;20230;-75
2022/01/24 08:19:35;;;;;;;52.30;23.10;;;0.20;99.90;;;;;;5099526;27;20212;-76
2022/01/24 08:22:23;;;;;;;56.90;24.80;;;0.30;99.90;;;;;;5104349;27;20244;-76
2022/01/24 08:25:12;;;;;;;51.80;25.30;;;0.30;99.90;;;;;;5097054;27;20227;-75
2022/01/24 08:28:01;;;;;;;48.67;23.53;;;0.30;99.90;;;;;;5119720;27;20312;-75
2022/01/24 08:30:51;;;;;;;52.00;23.83;;;0.40;99.90;;;;;;5103205;27;20212;-75
2022/01/24 08:33:43;;;;;;;57.07;23.97;;;0.40;99.90;;;;;;5104157;27;20215;-74
2022/01/24 08:36:32;;;;;;;53.80;21.43;;;0.50;99.90;;;;;;5115638;27;20531;-74
2022/01/24 08:39:21;;;;;;;52.90;22.27;;;0.50;99.90;;;;;;5119616;27;20373;-73
2022/01/24 08:42:15;;;;;;;52.77;23.57;;;0.60;99.90;;;;;;5118638;27;20220;-75
2022/01/24 08:48:12;;;;;;;50.10;21.27;;;0.60;99.90;;;;;;5091213;28;20296;-75
2022/01/24 08:51:02;;;;;;;48.37;22.87;;;0.50;99.90;;;;;;5098385;27;20225;-73
2022/01/24 08:53:51;;;;;;;50.93;21.73;;;0.50;99.90;;;;;;5099114;28;20300;-71
2022/01/24 08:56:41;;;;;;;53.83;23.07;;;0.60;99.90;;;;;;5123753;27;20778;-73
2022/01/24 08:59:34;;;;;;;60.97;28.57;;;0.60;99.90;;;;;;5110726;27;20225;-73
2022/01/24 09:02:24;;;;;;;52.13;22.87;;;0.70;99.90;;;;;;5116023;27;20228;-72
2022/01/24 09:05:13;;;;;;;52.70;24.67;;;0.80;99.90;;;;;;5094180;28;20353;-73
2022/01/24 09:08:05;;;;;;;56.37;23.27;;;0.80;99.90;;;;;;5101947;28;20217;-72
2022/01/24 09:10:54;;;;;;;57.57;24.77;;;0.90;99.90;;;;;;5083102;28;21031;-72
2022/01/24 09:13:43;;;;;;;57.23;24.70;;;0.90;99.90;;;;;;5100149;27;20708;-73
2022/01/24 09:16:31;;;;;;;48.90;22.50;;;0.90;99.90;;;;;;5096286;27;20234;-73
2022/01/24 09:19:21;;;;;;;56.33;25.07;;;0.80;99.90;;;;;;5097249;28;20252;-72
2022/01/24 09:22:10;;;;;;;57.40;23.93;;;0.80;99.90;;;;;;5092503;28;20248;-73
2022/01/24 09:25:00;;;;;;;65.83;23.87;;;0.90;99.90;;;;;;5097013;27;20238;-73
2022/01/24 09:27:49;;;;;;;57.90;25.60;;;0.90;99.90;;;;;;5110678;27;20242;-72
2022/01/24 09:30:38;;;;;;;55.60;24.13;;;1.00;99.90;;;;;;5096196;28;20226;-73
2022/01/24 09:33:28;;;;;;;48.97;20.77;;;1.00;99.90;;;;;;5095895;28;20221;-72
2022/01/24 09:36:16;;;;;;;47.77;22.20;;;0.90;99.90;;;;;;5093513;27;20237;-72
2022/01/24 09:39:05;;;;;;;47.77;21.43;;;0.90;99.90;;;;;;5091314;27;20678;-72
2022/01/24 09:41:55;;;;;;;46.80;20.97;;;1.00;99.90;;;;;;5095797;27;20221;-73
2022/01/24 09:44:53;;;;;;;55.63;22.60;;;1.00;99.90;;;;;;5095556;27;20230;-72
2022/01/24 09:47:42;;;;;;;50.33;21.80;;;1.10;99.90;;;;;;5095290;27;20253;-72
2022/01/24 09:50:32;;;;;;;55.93;22.33;;;1.10;99.90;;;;;;5115650;27;20224;-72
2022/01/24 09:53:22;;;;;;;52.00;22.43;;;1.20;99.90;;;;;;5095506;28;20206;-72
2022/01/24 09:56:11;;;;;;;50.60;23.70;;;1.20;99.90;;;;;;5095022;28;20230;-72
2022/01/24 09:59:01;;;;;;;54.33;22.57;;;1.20;99.90;;;;;;5094524;28;20225;-72
2022/01/24 10:01:50;;;;;;;50.57;19.83;;;1.30;99.90;;;;;;5094767;27;20225;-76
2022/01/24 10:04:39;;;;;;;53.00;21.53;;;1.20;99.90;;;;;;5097481;27;20227;-74
2022/01/24 10:07:28;;;;;;;56.40;24.10;;;1.10;99.90;;;;;;5092323;28;20876;-73
2022/01/24 10:10:26;;;;;;;50.70;21.13;;;1.20;99.90;;;;;;5095868;28;20215;-73
2022/01/24 10:16:36;;;;;;;48.70;22.77;;;1.10;99.90;;;;;;5094026;28;20238;-73
2022/01/24 10:19:25;;;;;;;53.03;24.87;;;1.10;99.90;;;;;;5104397;27;20781;-72
2022/01/24 10:22:24;;;;;;;47.50;19.63;;;1.10;99.90;;;;;;5097070;28;20224;-74
2022/01/24 10:25:13;;;;;;;47.37;21.10;;;1.10;99.90;;;;;;5095433;28;20219;-75
2022/01/24 10:28:02;;;;;;;52.17;21.40;;;1.20;99.90;;;;;;5093876;28;20297;-73
2022/01/24 10:31:06;;;;;;;50.43;22.87;;;1.10;99.90;;;;;;5095163;28;20230;-73
2022/01/24 10:34:03;;;;;;;51.37;21.50;;;1.20;99.90;;;;;;5095703;27;20220;-73
2022/01/24 10:36:54;;;;;;;37.17;17.23;;;1.30;99.90;;;;;;5109157;27;20219;-71
2022/01/24 10:39:55;;;;;;;47.13;20.77;;;1.20;99.90;;;;;;5123486;27;20212;-72
2022/01/24 10:42:55;;;;;;;44.20;19.00;;;1.30;99.90;;;;;;5107424;27;20216;-72
2022/01/24 10:45:45;;;;;;;47.30;21.67;;;1.30;99.90;;;;;;5103929;27;20426;-72
2022/01/24 10:48:39;;;;;;;48.53;19.87;;;1.50;99.90;;;;;;5119689;27;20226;-72
2022/01/24 10:51:36;;;;;;;47.47;18.30;;;1.50;99.90;;;;;;5119725;27;20217;-72
2022/01/24 10:54:29;;;;;;;43.03;20.50;;;1.30;99.90;;;;;;5117997;27;20212;-72
2022/01/24 10:57:24;;;;;;;47.07;19.43;;;1.30;99.90;;;;;;5100839;28;20217;-72
2022/01/24 11:00:15;;;;;;;45.03;20.00;;;1.30;99.90;;;;;;5092561;28;20219;-72
2022/01/24 11:03:06;;;;;;;50.23;21.53;;;1.30;99.90;;;;;;5091635;28;20715;-71
2022/01/24 11:05:55;;;;;;;47.73;20.00;;;1.50;99.90;;;;;;5096024;28;20223;-73
2022/01/24 11:08:45;;;;;;;49.17;20.57;;;1.40;99.90;;;;;;5096638;28;20361;-72
2022/01/24 11:11:34;;;;;;;50.23;22.13;;;1.60;99.90;;;;;;5084846;28;20235;-73
2022/01/24 11:14:24;;;;;;;43.90;21.60;;;1.50;99.90;;;;;;5109886;28;20315;-73
2022/01/24 11:17:19;;;;;;;43.70;19.77;;;1.70;99.90;;;;;;5104037;28;20228;-73
2022/01/24 11:20:12;;;;;;;39.70;18.13;;;1.70;99.90;;;;;;5096344;28;20218;-73
2022/01/24 11:23:02;;;;;;;37.70;18.63;;;1.60;99.90;;;;;;5114408;27;20825;-73
2022/01/24 11:25:57;;;;;;;39.67;19.10;;;1.70;99.90;;;;;;5118157;27;20226;-73
2022/01/24 11:28:46;;;;;;;44.63;20.30;;;1.80;99.90;;;;;;5113445;27;20250;-72
2022/01/24 11:31:41;;;;;;;46.90;19.77;;;1.80;99.90;;;;;;5094477;28;20211;-72
2022/01/24 11:34:35;;;;;;;41.53;19.93;;;1.90;99.90;;;;;;5092127;28;20218;-74
2022/01/24 11:37:37;;;;;;;46.67;17.90;;;1.90;99.90;;;;;;5093850;28;20215;-73
2022/01/24 11:40:26;;;;;;;43.43;18.03;;;2.00;99.90;;;;;;5098044;28;20218;-72
2022/01/24 11:43:32;;;;;;;45.63;20.20;;;2.10;99.90;;;;;;5103119;27;20227;-73
2022/01/24 11:46:37;;;;;;;43.43;18.53;;;2.10;99.90;;;;;;5097703;28;20216;-73
2022/01/24 11:49:32;;;;;;;44.03;17.37;;;2.20;99.90;;;;;;5096421;28;20587;-71
2022/01/24 11:52:29;;;;;;;38.90;18.07;;;2.10;99.90;;;;;;5102224;28;20223;-74
2022/01/24 11:55:33;;;;;;;43.77;17.80;;;2.20;99.90;;;;;;5119645;27;20309;-73
2022/01/24 11:58:27;;;;;;;37.37;18.07;;;2.10;99.90;;;;;;5106626;27;20226;-72
2022/01/24 12:01:33;;;;;;;38.43;18.73;;;2.20;99.90;;;;;;5109631;27;20232;-73
2022/01/24 12:05:04;;;;;;;41.70;16.47;;;2.10;99.90;;;;;;5118625;27;20615;-73
2022/01/24 12:07:55;;;;;;;41.97;18.83;;;2.10;99.90;;;;;;5096762;27;20218;-75
2022/01/24 12:10:46;;;;;;;38.97;17.43;;;2.10;99.90;;;;;;5116307;27;20758;-73
2022/01/24 12:13:43;;;;;;;39.13;19.43;;;2.10;99.90;;;;;;5108186;27;20750;-73
2022/01/24 12:16:36;;;;;;;45.40;19.90;;;2.10;99.90;;;;;;5108383;27;21667;-72
2022/01/24 12:19:31;;;;;;;48.27;19.07;;;2.10;99.90;;;;;;5110309;27;20213;-73
2022/01/24 12:22:36;;;;;;;38.77;18.70;;;2.10;99.90;;;;;;5107049;27;20218;-73
2022/01/24 12:25:48;;;;;;;39.97;20.20;;;2.20;99.90;;;;;;5120360;27;20678;-73
2022/01/24 12:28:52;;;;;;;53.10;19.27;;;2.20;99.90;;;;;;5117177;27;20221;-75
2022/01/24 12:31:47;;;;;;;46.63;19.70;;;2.30;99.90;;;;;;5118630;27;20536;-74
2022/01/24 12:34:40;;;;;;;42.92;22.17;;;2.30;99.90;;;;;;5119277;27;20430;-74
2022/01/24 12:37:31;;;;;;;37.17;18.07;;;2.30;99.90;;;;;;5119639;27;20230;-74
2022/01/24 12:40:27;;;;;;;38.83;18.17;;;2.20;99.90;;;;;;5104166;27;20793;-75
2022/01/24 12:43:30;;;;;;;41.87;18.37;;;2.20;99.90;;;;;;5101703;27;20234;-75
2022/01/24 12:46:22;;;;;;;36.90;17.00;;;2.20;99.90;;;;;;5097197;28;20769;-73
2022/01/24 12:49:11;;;;;;;36.10;18.40;;;2.10;99.90;;;;;;5108408;27;20223;-73
2022/01/24 12:52:00;;;;;;;43.67;19.10;;;2.10;99.90;;;;;;5097375;28;20219;-73
2022/01/24 12:54:52;;;;;;;39.27;18.13;;;2.30;99.90;;;;;;5123350;27;20237;-73
2022/01/24 12:57:44;;;;;;;39.03;19.13;;;2.30;99.90;;;;;;5106414;27;20255;-73
2022/01/24 13:00:32;;;;;;;42.47;19.57;;;2.30;99.90;;;;;;5103185;27;20233;-74
2022/01/24 13:03:23;;;;;;;45.40;20.43;;;2.20;99.90;;;;;;5115316;27;20640;-73
2022/01/24 13:06:15;;;;;;;39.87;18.37;;;2.30;99.90;;;;;;5102318;28;20219;-74
2022/01/24 13:09:12;;;;;;;39.13;19.23;;;2.20;99.90;;;;;;5104984;27;21375;-73
2022/01/24 13:12:04;;;;;;;43.10;18.10;;;2.30;99.90;;;;;;5101769;27;20226;-73
2022/01/24 13:14:58;;;;;;;41.93;19.37;;;2.30;99.90;;;;;;5090090;28;20219;-73
2022/01/24 13:24:07;;;;;;;38.60;17.13;;;2.20;99.90;;;;;;5102319;27;20215;-73
2022/01/24 13:27:05;;;;;;;41.97;19.27;;;2.10;99.90;;;;;;5116334;27;20335;-73
2022/01/24 13:29:54;;;;;;;38.97;18.20;;;2.10;99.90;;;;;;5100562;28;20230;-74
2022/01/24 13:32:46;;;;;;;36.93;17.87;;;2.20;99.90;;;;;;5104617;27;20223;-73
2022/01/24 13:35:37;;;;;;;42.73;19.00;;;2.10;99.90;;;;;;5100255;27;20215;-74
2022/01/24 13:38:29;;;;;;;41.63;19.13;;;2.20;99.90;;;;;;5110896;27;20298;-74
2022/01/24 13:41:20;;;;;;;37.23;18.47;;;2.10;99.90;;;;;;5099914;28;20214;-75
2022/01/24 13:44:15;;;;;;;34.63;17.63;;;2.10;99.90;;;;;;5093534;28;20238;-73
2022/01/24 13:47:10;;;;;;;39.87;18.17;;;2.10;99.90;;;;;;5093114;27;20356;-74
2022/01/24 13:50:01;;;;;;;39.83;20.03;;;2.10;99.90;;;;;;5097369;28;20353;-74
2022/01/24 13:52:51;;;;;;;41.63;18.73;;;2.10;99.90;;;;;;5097829;28;20257;-74
2022/01/24 13:55:42;;;;;;;41.07;19.20;;;2.20;99.90;;;;;;5096937;28;20234;-74
2022/01/24 13:58:31;;;;;;;43.27;19.37;;;2.10;99.90;;;;;;5097754;28;20831;-71
2022/01/24 14:01:20;;;;;;;36.87;17.50;;;2.00;99.90;;;;;;5102610;27;20223;-73
2022/01/24 14:04:10;;;;;;;40.90;19.57;;;2.00;99.90;;;;;;5099818;28;20227;-73
2022/01/24 14:07:01;;;;;;;44.07;20.03;;;2.00;99.90;;;;;;5095890;27;20215;-73
2022/01/24 14:10:00;;;;;;;38.13;18.23;;;2.00;99.90;;;;;;5084368;27;20271;-72
2022/01/24 14:12:52;;;;;;;42.27;19.23;;;2.00;99.90;;;;;;5119056;27;20786;-72
2022/01/24 14:15:53;;;;;;;43.10;19.13;;;2.00;99.90;;;;;;5107109;27;20229;-74
2022/01/24 14:18:42;;;;;;;39.90;19.07;;;2.00;99.90;;;;;;5104742;27;20229;-75
2022/01/24 14:21:33;;;;;;;41.80;20.73;;;2.00;99.90;;;;;;5104298;27;20827;-74
2022/01/24 14:24:22;;;;;;;43.23;19.67;;;2.00;99.90;;;;;;5106550;27;20683;-73
2022/01/24 14:27:10;;;;;;;43.13;20.10;;;2.00;99.90;;;;;;5110470;27;20218;-73
2022/01/24 14:30:08;;;;;;;45.17;19.73;;;1.90;99.90;;;;;;5072149;27;20531;-73
2022/01/24 14:33:04;;;;;;;41.43;19.80;;;2.00;99.90;;;;;;5113709;27;20308;-73
2022/01/24 14:35:58;;;;;;;38.90;18.10;;;1.90;99.90;;;;;;5117445;27;20275;-74
2022/01/24 14:38:55;;;;;;;44.23;19.40;;;1.90;99.90;;;;;;5101658;27;20222;-72
2022/01/24 14:41:46;;;;;;;45.60;20.47;;;1.90;99.90;;;;;;5118682;27;20699;-75
2022/01/24 14:47:42;;;;;;;49.73;20.43;;;1.90;99.90;;;;;;5100694;27;20312;-75
2022/01/24 14:50:32;;;;;;;44.43;21.63;;;1.80;99.90;;;;;;5103979;27;20701;-74
2022/01/24 14:53:28;;;;;;;42.47;19.80;;;1.80;99.90;;;;;;5115598;27;20723;-75
2022/01/24 14:56:18;;;;;;;47.47;21.83;;;1.80;99.90;;;;;;5094764;28;20214;-71
2022/01/24 14:59:10;;;;;;;42.17;17.83;;;1.80;99.90;;;;;;5093516;28;20215;-72
2022/01/24 15:02:03;;;;;;;41.10;17.33;;;1.80;99.90;;;;;;5087779;28;20239;-72
2022/01/24 15:04:53;;;;;;;42.03;19.07;;;1.80;99.90;;;;;;5120440;27;20331;-75
2022/01/24 15:07:43;;;;;;;45.23;20.77;;;1.70;99.90;;;;;;5116068;27;20217;-76
2022/01/24 15:10:32;;;;;;;46.50;18.60;;;1.70;99.90;;;;;;5106249;28;20499;-75
2022/01/24 15:13:23;;;;;;;44.00;19.33;;;1.70;99.90;;;;;;5111724;28;20692;-75
2022/01/24 15:16:16;;;;;;;50.60;21.20;;;1.70;99.90;;;;;;5116060;27;20225;-76
2022/01/24 15:25:34;;;;;;;51.50;20.90;;;1.70;99.90;;;;;;5111782;27;20222;-76
2022/01/24 15:28:23;;;;;;;42.03;21.33;;;1.70;99.90;;;;;;5109506;27;20306;-77
2022/01/24 15:31:12;;;;;;;40.23;17.90;;;1.60;99.90;;;;;;5108434;27;20304;-77
2022/01/24 15:34:01;;;;;;;44.80;20.07;;;1.60;99.90;;;;;;5095612;27;20291;-76
2022/01/24 15:36:50;;;;;;;46.00;20.40;;;1.70;99.90;;;;;;5088470;28;20729;-77
2022/01/24 15:39:40;;;;;;;45.93;20.57;;;1.70;99.90;;;;;;5090328;28;20226;-76
2022/01/24 15:42:43;;;;;;;39.53;18.33;;;1.70;99.90;;;;;;5104216;27;20855;-77
2022/01/24 15:45:38;;;;;;;41.93;19.60;;;1.60;99.90;;;;;;5099226;28;20986;-77
2022/01/24 15:48:27;;;;;;;47.20;20.33;;;1.70;99.90;;;;;;5112302;27;20217;-86
2022/01/24 15:51:17;;;;;;;43.47;20.53;;;1.70;99.90;;;;;;5105897;27;20230;-75
2022/01/24 15:54:06;;;;;;;46.47;21.70;;;1.60;99.90;;;;;;5104856;27;20228;-76
2022/01/24 16:00:02;;;;;;;39.47;19.27;;;1.60;99.90;;;;;;5103548;27;20301;-76
2022/01/24 16:03:02;;;;;;;44.73;20.50;;;1.60;99.90;;;;;;5113059;27;20215;-74
2022/01/24 16:05:51;;;;;;;46.60;21.80;;;1.60;99.90;;;;;;5100164;27;20226;-77